Time;durP1;ratioP1;P1;durP2;ratioP2;P2;SDS_P1;SDS_P2;PMS_P1;PMS_P2;Temp;Humidity;BMP_temperature;BMP_pressure;BME280_temperature;BME280_humidity;BME280_pressure;Samples;Min_cycle;Max_cycle;Signal;HPM_P1;HPM_P2
2023/01/06 00:01:18;;;;;;;3.30;1.53;;;;;;;;;;5032320;28;20249;-74
2023/01/06 00:03:47;;;;;;;5.83;1.67;;;;;;;;;;5029122;28;20244;-74
2023/01/06 00:06:12;;;;;;;6.13;1.97;;;;;;;;;;5025785;28;20261;-74
2023/01/06 00:08:39;;;;;;;5.30;2.07;;;;;;;;;;5029231;28;20265;-74
2023/01/06 00:11:05;;;;;;;3.00;2.03;;;;;;;;;;5023235;28;20167;-74
2023/01/06 00:13:30;;;;;;;4.10;2.47;;;;;;;;;;5024259;28;20279;-74
2023/01/06 00:15:55;;;;;;;5.67;2.87;;;;;;;;;;5028139;28;20632;-74
2023/01/06 00:18:20;;;;;;;5.82;2.83;;;;;;;;;;5026373;28;20190;-74
2023/01/06 00:20:45;;;;;;;5.70;3.20;;;;;;;;;;5025704;28;20218;-74
2023/01/06 00:23:11;;;;;;;6.10;3.70;;;;;;;;;;5030395;28;20195;-75
2023/01/06 00:25:36;;;;;;;6.57;3.77;;;;;;;;;;5022980;28;20182;-74
2023/01/06 00:28:01;;;;;;;9.70;4.53;;;;;;;;;;5025313;28;20182;-74
2023/01/06 00:30:26;;;;;;;10.40;4.53;;;;;;;;;;5023423;28;20596;-74
2023/01/06 00:32:51;;;;;;;6.53;4.93;;;;;;;;;;5029818;28;20198;-74
2023/01/06 00:35:17;;;;;;;7.90;5.10;;;;;;;;;;5031089;28;20194;-74
2023/01/06 00:37:42;;;;;;;7.27;5.17;;;;;;;;;;5023357;28;20167;-74
2023/01/06 00:40:07;;;;;;;7.27;5.90;;;;;;;;;;5031943;28;20178;-74
2023/01/06 00:42:32;;;;;;;10.83;6.00;;;;;;;;;;5030439;28;20671;-74
2023/01/06 00:44:58;;;;;;;8.80;5.23;;;;;;;;;;5022971;28;20191;-74
2023/01/06 00:47:23;;;;;;;5.83;4.67;;;;;;;;;;5019397;28;20551;-74
2023/01/06 00:49:48;;;;;;;7.50;5.03;;;;;;;;;;5024969;28;20183;-74
2023/01/06 00:52:13;;;;;;;4.77;3.70;;;;;;;;;;5019798;28;20194;-73
2023/01/06 00:54:39;;;;;;;6.27;3.73;;;;;;;;;;5023077;28;20258;-73
2023/01/06 00:57:05;;;;;;;6.27;4.23;;;;;;;;;;5024134;28;20171;-74
2023/01/06 00:59:30;;;;;;;6.93;3.40;;;;;;;;;;5028230;28;20644;-74
2023/01/06 01:01:56;;;;;;;5.23;3.20;;;;;;;;;;5020551;28;20272;-74
2023/01/06 01:04:22;;;;;;;4.70;3.17;;;;;;;;;;5022986;28;20272;-74
2023/01/06 01:06:47;;;;;;;6.43;3.00;;;;;;;;;;5021579;28;20270;-74
2023/01/06 01:09:14;;;;;;;7.43;3.27;;;;;;;;;;5018733;28;20222;-74
2023/01/06 01:14:20;;;;;;;5.90;3.00;;;;;;;;;;4973503;28;20211;-79
2023/01/06 01:16:45;;;;;;;4.10;3.20;;;;;;;;;;4972539;28;20223;-79
2023/01/06 01:19:11;;;;;;;7.63;3.38;;;;;;;;;;4964763;28;20609;-79
2023/01/06 01:21:36;;;;;;;5.65;3.20;;;;;;;;;;4968981;28;20266;-78
2023/01/06 01:24:01;;;;;;;4.47;2.87;;;;;;;;;;4961818;28;20196;-79
2023/01/06 01:26:27;;;;;;;5.35;2.97;;;;;;;;;;4962768;28;20188;-79
2023/01/06 01:28:52;;;;;;;4.37;2.47;;;;;;;;;;4967078;28;20187;-79
2023/01/06 01:31:17;;;;;;;3.47;2.60;;;;;;;;;;4968369;28;20189;-79
2023/01/06 01:33:42;;;;;;;4.47;2.33;;;;;;;;;;4966913;28;20287;-79
2023/01/06 01:36:09;;;;;;;4.85;1.88;;;;;;;;;;4972224;28;20243;-79
2023/01/06 01:38:34;;;;;;;2.72;1.90;;;;;;;;;;4972071;28;20713;-78
2023/01/06 01:40:59;;;;;;;5.55;2.75;;;;;;;;;;4968802;28;20211;-80
2023/01/06 01:43:25;;;;;;;2.80;2.43;;;;;;;;;;4973978;28;20208;-77
2023/01/06 01:45:51;;;;;;;5.17;2.60;;;;;;;;;;4978885;28;20199;-78
2023/01/06 01:48:24;;;;;;;4.72;2.55;;;;;;;;;;4972512;28;20176;-80
2023/01/06 01:50:51;;;;;;;2.55;2.17;;;;;;;;;;4975134;28;20208;-79
2023/01/06 01:53:16;;;;;;;4.53;2.90;;;;;;;;;;4979752;28;20220;-79
2023/01/06 01:55:42;;;;;;;5.97;2.40;;;;;;;;;;4977963;28;20657;-78
2023/01/06 01:58:07;;;;;;;7.68;2.88;;;;;;;;;;4976849;28;20176;-79
2023/01/06 02:00:33;;;;;;;3.57;2.17;;;;;;;;;;4961405;28;20194;-79
2023/01/06 02:02:59;;;;;;;8.80;2.15;;;;;;;;;;4982641;28;20498;-78
2023/01/06 02:05:25;;;;;;;3.60;2.10;;;;;;;;;;4980381;28;20218;-78
2023/01/06 02:07:50;;;;;;;5.07;2.33;;;;;;;;;;4973397;28;20840;-79
2023/01/06 02:10:20;;;;;;;3.38;2.20;;;;;;;;;;4977617;28;20195;-78
2023/01/06 02:12:48;;;;;;;3.28;2.55;;;;;;;;;;4976554;28;20287;-80
2023/01/06 02:15:17;;;;;;;3.97;2.40;;;;;;;;;;4978673;28;20203;-80
2023/01/06 02:17:45;;;;;;;6.80;1.90;;;;;;;;;;4977983;28;20681;-81
2023/01/06 02:20:26;;;;;;;4.73;2.30;;;;;;;;;;4985749;28;20661;-80
2023/01/06 02:23:09;;;;;;;2.93;2.30;;;;;;;;;;4984327;28;20200;-79
2023/01/06 02:25:53;;;;;;;4.78;2.10;;;;;;;;;;4977211;28;20611;-78
2023/01/06 02:28:27;;;;;;;6.07;2.80;;;;;;;;;;4979893;28;20242;-80
2023/01/06 02:31:11;;;;;;;2.53;1.83;;;;;;;;;;4974990;28;20276;-79
2023/01/06 02:33:40;;;;;;;4.53;1.53;;;;;;;;;;4976130;28;20284;-80
2023/01/06 02:36:20;;;;;;;4.37;1.73;;;;;;;;;;4979512;28;20681;-77
2023/01/06 02:39:04;;;;;;;3.57;2.17;;;;;;;;;;4977251;28;20176;-80
2023/01/06 02:41:45;;;;;;;3.03;1.50;;;;;;;;;;4979181;28;20180;-80
2023/01/06 02:44:20;;;;;;;5.10;1.45;;;;;;;;;;4975229;28;20184;-81
2023/01/06 02:46:51;;;;;;;3.17;2.23;;;;;;;;;;4980331;28;20191;-80
2023/01/06 02:49:16;;;;;;;3.27;1.50;;;;;;;;;;4980032;28;20223;-78
2023/01/06 02:51:53;;;;;;;1.67;1.50;;;;;;;;;;4983166;28;20650;-78
2023/01/06 02:54:24;;;;;;;4.57;1.50;;;;;;;;;;4978636;28;20176;-78
2023/01/06 02:56:53;;;;;;;4.40;1.73;;;;;;;;;;4984103;28;20200;-78
2023/01/06 02:59:21;;;;;;;2.10;1.60;;;;;;;;;;4980839;28;20591;-78
2023/01/06 03:01:47;;;;;;;3.25;2.05;;;;;;;;;;4977471;28;20177;-78
2023/01/06 03:04:19;;;;;;;4.70;1.77;;;;;;;;;;4972716;28;20279;-78
2023/01/06 03:06:46;;;;;;;3.33;1.57;;;;;;;;;;4981570;28;20236;-78
2023/01/06 03:09:13;;;;;;;4.00;1.40;;;;;;;;;;4978865;28;20205;-78
2023/01/06 03:11:38;;;;;;;2.13;1.33;;;;;;;;;;4972911;28;20240;-78
2023/01/06 03:14:07;;;;;;;5.50;1.60;;;;;;;;;;4969596;28;20212;-78
2023/01/06 03:16:33;;;;;;;5.93;1.30;;;;;;;;;;4963467;28;20578;-78
2023/01/06 03:18:58;;;;;;;2.33;1.50;;;;;;;;;;4972016;28;20179;-78
2023/01/06 03:21:25;;;;;;;3.20;1.70;;;;;;;;;;4982694;28;20607;-78
2023/01/06 03:23:51;;;;;;;2.40;1.65;;;;;;;;;;4987535;28;20289;-78
2023/01/06 03:26:16;;;;;;;4.07;1.80;;;;;;;;;;4974857;28;20218;-78
2023/01/06 03:28:42;;;;;;;3.80;1.83;;;;;;;;;;4979486;28;20180;-78
2023/01/06 03:31:07;;;;;;;2.53;1.70;;;;;;;;;;4981755;28;20223;-78
2023/01/06 03:33:37;;;;;;;5.38;2.28;;;;;;;;;;4982190;28;20196;-78
2023/01/06 03:36:05;;;;;;;3.13;1.60;;;;;;;;;;4981035;28;20196;-78
2023/01/06 03:38:41;;;;;;;4.00;1.80;;;;;;;;;;4986015;28;20673;-78
2023/01/06 03:43:10;;;;;;;6.38;1.83;;;;;;;;;;4979143;28;20227;-78
2023/01/06 03:44:17;;;;;;;3.27;1.20;;;;;;;;;;4974355;28;20200;-78
2023/01/06 03:46:47;;;;;;;1.77;1.50;;;;;;;;;;4981216;28;20176;-78
2023/01/06 03:49:18;;;;;;;2.17;1.10;;;;;;;;;;4979816;28;20668;-78
2023/01/06 03:52:04;;;;;;;2.87;1.40;;;;;;;;;;4979551;28;20176;-78
2023/01/06 03:54:32;;;;;;;2.90;1.00;;;;;;;;;;4978369;28;20176;-77
2023/01/06 03:57:02;;;;;;;4.90;1.40;;;;;;;;;;4968346;28;20185;-78
2023/01/06 03:59:29;;;;;;;4.10;1.37;;;;;;;;;;4966613;28;20207;-78
2023/01/06 04:01:55;;;;;;;2.22;1.65;;;;;;;;;;4972109;28;20578;-78
2023/01/06 04:04:21;;;;;;;6.80;1.50;;;;;;;;;;4975263;28;20701;-78
2023/01/06 04:06:46;;;;;;;7.20;1.35;;;;;;;;;;4971050;28;20177;-79
2023/01/06 04:09:11;;;;;;;2.43;1.47;;;;;;;;;;4975635;28;20211;-78
2023/01/06 04:14:20;;;;;;;3.45;1.38;;;;;;;;;;4978183;28;20187;-78
2023/01/06 04:16:45;;;;;;;5.40;1.47;;;;;;;;;;4991357;28;20208;-78
2023/01/06 04:19:11;;;;;;;4.40;1.50;;;;;;;;;;4976469;28;20268;-78
2023/01/06 04:21:36;;;;;;;3.87;1.57;;;;;;;;;;4975306;28;20301;-78
2023/01/06 04:24:01;;;;;;;3.90;1.50;;;;;;;;;;4974513;28;20199;-79
2023/01/06 04:26:26;;;;;;;3.23;1.50;;;;;;;;;;4978658;28;20180;-79
2023/01/06 04:28:51;;;;;;;2.13;1.30;;;;;;;;;;4970166;28;20183;-79
2023/01/06 04:31:17;;;;;;;2.97;1.37;;;;;;;;;;4974674;28;20185;-78
2023/01/06 04:33:42;;;;;;;1.77;1.27;;;;;;;;;;4980978;28;20196;-79
2023/01/06 04:36:10;;;;;;;4.73;1.30;;;;;;;;;;4965270;28;20208;-79
2023/01/06 04:38:35;;;;;;;2.72;1.23;;;;;;;;;;4971109;28;20180;-79
2023/01/06 04:41:01;;;;;;;5.60;1.50;;;;;;;;;;4974469;28;20173;-79
2023/01/06 04:43:27;;;;;;;2.57;1.30;;;;;;;;;;4974879;28;20268;-78
2023/01/06 04:45:52;;;;;;;4.80;1.80;;;;;;;;;;4977572;28;20208;-78
2023/01/06 04:48:17;;;;;;;3.10;1.53;;;;;;;;;;4968111;28;20168;-78
2023/01/06 04:50:43;;;;;;;5.07;1.67;;;;;;;;;;4971208;28;20183;-78
2023/01/06 04:53:09;;;;;;;2.30;1.50;;;;;;;;;;4970393;28;20276;-79
2023/01/06 04:55:36;;;;;;;3.43;2.13;;;;;;;;;;4973710;28;20296;-79
2023/01/06 04:58:01;;;;;;;2.03;1.60;;;;;;;;;;4973116;28;20181;-79
2023/01/06 05:00:27;;;;;;;3.70;1.67;;;;;;;;;;4966335;28;20180;-79
2023/01/06 05:02:52;;;;;;;3.00;1.27;;;;;;;;;;4971051;28;20204;-78
2023/01/06 05:05:17;;;;;;;3.53;1.30;;;;;;;;;;4970885;28;20227;-78
2023/01/06 05:07:42;;;;;;;2.47;1.43;;;;;;;;;;4960682;28;20184;-78
2023/01/06 05:10:08;;;;;;;1.73;1.30;;;;;;;;;;4960734;28;20180;-79
2023/01/06 05:12:33;;;;;;;2.63;1.50;;;;;;;;;;4961819;28;20638;-80
2023/01/06 05:14:59;;;;;;;6.63;2.07;;;;;;;;;;4966263;28;20206;-80
2023/01/06 05:17:24;;;;;;;2.03;1.37;;;;;;;;;;4969682;28;20211;-80
2023/01/06 05:19:50;;;;;;;2.20;1.73;;;;;;;;;;4964941;28;20176;-79
2023/01/06 05:22:15;;;;;;;2.50;1.30;;;;;;;;;;4970381;28;20207;-79
2023/01/06 05:24:40;;;;;;;2.27;1.10;;;;;;;;;;4972183;28;20188;-80
2023/01/06 05:27:06;;;;;;;1.73;1.20;;;;;;;;;;4969521;28;20556;-79
2023/01/06 05:29:31;;;;;;;3.97;2.37;;;;;;;;;;4962392;28;20176;-79
2023/01/06 05:31:57;;;;;;;1.63;1.20;;;;;;;;;;4973484;28;20314;-80
2023/01/06 05:34:22;;;;;;;1.80;1.33;;;;;;;;;;4969501;28;20177;-79
2023/01/06 05:36:47;;;;;;;2.70;1.20;;;;;;;;;;4969395;28;20271;-79
2023/01/06 05:39:12;;;;;;;2.67;1.40;;;;;;;;;;4968182;28;20181;-79
2023/01/06 05:41:38;;;;;;;1.93;1.40;;;;;;;;;;4970050;28;22279;-80
2023/01/06 05:44:03;;;;;;;2.83;1.13;;;;;;;;;;4965612;28;20624;-80
2023/01/06 05:46:28;;;;;;;4.73;1.50;;;;;;;;;;4973001;28;20577;-80
2023/01/06 05:48:53;;;;;;;1.93;1.40;;;;;;;;;;4972393;28;20176;-80
2023/01/06 05:51:19;;;;;;;2.87;1.60;;;;;;;;;;4965062;28;20176;-80
2023/01/06 05:53:45;;;;;;;1.73;1.30;;;;;;;;;;4964933;28;20208;-79
2023/01/06 05:56:12;;;;;;;1.93;1.40;;;;;;;;;;4989909;28;20648;-80
2023/01/06 05:58:40;;;;;;;1.67;1.50;;;;;;;;;;4972487;28;20272;-80
2023/01/06 06:01:06;;;;;;;5.33;2.97;;;;;;;;;;4972112;28;20271;-79
2023/01/06 06:03:31;;;;;;;3.30;2.00;;;;;;;;;;4959498;28;20232;-79
2023/01/06 06:06:03;;;;;;;2.73;1.30;;;;;;;;;;4970832;28;20184;-79
2023/01/06 06:08:29;;;;;;;2.43;2.00;;;;;;;;;;4972546;28;20195;-79
2023/01/06 06:10:54;;;;;;;4.43;1.70;;;;;;;;;;4966996;28;20568;-80
2023/01/06 06:13:19;;;;;;;4.20;1.90;;;;;;;;;;4967557;28;20219;-79
2023/01/06 06:15:44;;;;;;;3.03;1.60;;;;;;;;;;4971998;28;20204;-79
2023/01/06 06:18:10;;;;;;;1.50;1.33;;;;;;;;;;4973934;28;20180;-79
2023/01/06 06:20:35;;;;;;;3.37;1.73;;;;;;;;;;4970585;28;20674;-80
2023/01/06 06:23:00;;;;;;;4.00;2.40;;;;;;;;;;4969322;28;20205;-79
2023/01/06 06:25:25;;;;;;;9.07;2.33;;;;;;;;;;4967510;28;20181;-80
2023/01/06 06:27:50;;;;;;;3.70;1.73;;;;;;;;;;4964379;28;20670;-79
2023/01/06 06:30:16;;;;;;;2.07;1.80;;;;;;;;;;4973633;28;20172;-81
2023/01/06 06:32:41;;;;;;;3.10;1.80;;;;;;;;;;4964991;28;20205;-80
2023/01/06 06:35:06;;;;;;;2.60;2.40;;;;;;;;;;4974949;28;20207;-80
2023/01/06 06:37:32;;;;;;;2.97;2.57;;;;;;;;;;4972792;28;20192;-79
2023/01/06 06:39:57;;;;;;;2.83;2.60;;;;;;;;;;4987143;28;20177;-79
2023/01/06 06:42:22;;;;;;;2.30;2.10;;;;;;;;;;4965248;28;20196;-79
2023/01/06 06:44:47;;;;;;;3.90;2.40;;;;;;;;;;4969149;28;20173;-79
2023/01/06 06:47:13;;;;;;;3.77;2.80;;;;;;;;;;4971823;28;20247;-77
2023/01/06 06:49:38;;;;;;;5.47;2.50;;;;;;;;;;4975144;28;20168;-78
2023/01/06 06:52:03;;;;;;;3.50;2.40;;;;;;;;;;4977521;28;20243;-79
2023/01/06 06:54:28;;;;;;;3.63;2.60;;;;;;;;;;4970510;28;20173;-78
2023/01/06 06:56:55;;;;;;;2.83;2.23;;;;;;;;;;4976472;28;20207;-78
2023/01/06 06:59:21;;;;;;;4.27;2.87;;;;;;;;;;4975704;28;20180;-77
2023/01/06 07:01:46;;;;;;;4.90;3.17;;;;;;;;;;4963688;28;20499;-78
2023/01/06 07:04:11;;;;;;;3.50;3.20;;;;;;;;;;4972857;28;20252;-78
2023/01/06 07:06:36;;;;;;;5.93;3.37;;;;;;;;;;4968033;28;20211;-78
2023/01/06 07:09:01;;;;;;;6.03;3.20;;;;;;;;;;4975278;28;20246;-79
2023/01/06 07:11:27;;;;;;;4.07;3.50;;;;;;;;;;4974563;28;20188;-78
2023/01/06 07:13:52;;;;;;;2.97;2.67;;;;;;;;;;4970899;28;20682;-77
2023/01/06 07:16:18;;;;;;;3.13;2.70;;;;;;;;;;4970626;28;20711;-77
2023/01/06 07:18:43;;;;;;;5.27;2.57;;;;;;;;;;4963592;28;20184;-78
2023/01/06 07:21:09;;;;;;;4.37;2.73;;;;;;;;;;4975482;28;20180;-77
2023/01/06 07:23:34;;;;;;;2.83;1.97;;;;;;;;;;4969181;28;20280;-78
2023/01/06 07:26:00;;;;;;;2.00;1.67;;;;;;;;;;4969467;28;20188;-77
2023/01/06 07:28:26;;;;;;;6.90;2.43;;;;;;;;;;4976999;28;20231;-78
2023/01/06 07:30:51;;;;;;;2.90;2.40;;;;;;;;;;4975579;28;20181;-78
2023/01/06 07:33:17;;;;;;;3.87;2.60;;;;;;;;;;4969382;28;20429;-77
2023/01/06 07:35:42;;;;;;;4.23;3.03;;;;;;;;;;4969019;28;20227;-78
2023/01/06 07:38:07;;;;;;;4.53;2.73;;;;;;;;;;4974770;28;20637;-77
2023/01/06 07:40:33;;;;;;;6.73;3.27;;;;;;;;;;4972631;28;20185;-78
2023/01/06 07:43:02;;;;;;;4.77;2.77;;;;;;;;;;4974522;28;20196;-78
2023/01/06 07:45:27;;;;;;;3.93;3.13;;;;;;;;;;4973155;28;20183;-78
2023/01/06 07:47:54;;;;;;;3.17;2.50;;;;;;;;;;4972827;28;20172;-78
2023/01/06 07:50:19;;;;;;;4.67;2.80;;;;;;;;;;4973282;28;20184;-78
2023/01/06 07:52:44;;;;;;;5.70;2.63;;;;;;;;;;4970834;28;20201;-78
2023/01/06 07:55:09;;;;;;;4.30;2.90;;;;;;;;;;4973561;28;20674;-78
2023/01/06 07:57:35;;;;;;;5.63;2.43;;;;;;;;;;4964984;28;20184;-78
2023/01/06 08:00:00;;;;;;;6.53;3.23;;;;;;;;;;4974923;28;20177;-78
2023/01/06 08:02:25;;;;;;;7.20;2.10;;;;;;;;;;4962960;28;20236;-78
2023/01/06 08:04:50;;;;;;;5.93;2.13;;;;;;;;;;4964432;28;20215;-78
2023/01/06 08:07:15;;;;;;;4.97;2.30;;;;;;;;;;4968593;28;20669;-78
2023/01/06 08:09:41;;;;;;;4.40;3.00;;;;;;;;;;4966157;28;20664;-79
2023/01/06 08:12:06;;;;;;;5.30;2.53;;;;;;;;;;4966535;28;20705;-78
2023/01/06 08:14:31;;;;;;;7.07;2.97;;;;;;;;;;4969805;28;20179;-78
2023/01/06 08:16:56;;;;;;;4.33;2.57;;;;;;;;;;4972461;28;20751;-78
2023/01/06 08:19:21;;;;;;;7.93;2.60;;;;;;;;;;4972602;28;20195;-79
2023/01/06 08:21:47;;;;;;;7.03;2.40;;;;;;;;;;4972681;28;20196;-78
2023/01/06 08:24:12;;;;;;;3.87;2.77;;;;;;;;;;4974527;28;20184;-78
2023/01/06 08:26:37;;;;;;;3.40;2.63;;;;;;;;;;4974372;28;20172;-79
2023/01/06 08:29:02;;;;;;;5.30;2.60;;;;;;;;;;4971836;28;20650;-77
2023/01/06 08:31:27;;;;;;;7.20;2.63;;;;;;;;;;4964722;28;20203;-77
2023/01/06 08:33:53;;;;;;;9.03;2.40;;;;;;;;;;4968865;28;20278;-77
2023/01/06 08:36:19;;;;;;;8.03;2.97;;;;;;;;;;4971609;28;20212;-77
2023/01/06 08:38:45;;;;;;;5.67;2.50;;;;;;;;;;4973505;28;20243;-79
2023/01/06 08:41:10;;;;;;;8.13;3.50;;;;;;;;;;4970274;28;20176;-78
2023/01/06 08:43:37;;;;;;;4.10;2.43;;;;;;;;;;4972895;28;20204;-78
2023/01/06 08:46:04;;;;;;;6.37;2.80;;;;;;;;;;4972569;28;20275;-78
2023/01/06 08:48:29;;;;;;;4.40;2.20;;;;;;;;;;4968454;28;20259;-78
2023/01/06 08:50:55;;;;;;;5.73;1.83;;;;;;;;;;4972009;28;20263;-78
2023/01/06 08:53:21;;;;;;;6.30;2.17;;;;;;;;;;4970508;28;20200;-78
2023/01/06 08:55:46;;;;;;;7.70;2.10;;;;;;;;;;4971768;28;20683;-78
2023/01/06 08:58:11;;;;;;;8.37;2.63;;;;;;;;;;4970435;28;20180;-78
2023/01/06 09:00:38;;;;;;;7.37;2.27;;;;;;;;;;4969312;28;20177;-79
2023/01/06 09:03:03;;;;;;;12.03;2.53;;;;;;;;;;4966711;28;20219;-78
2023/01/06 09:05:28;;;;;;;8.70;2.73;;;;;;;;;;4965015;28;20215;-78
2023/01/06 09:07:53;;;;;;;8.97;2.33;;;;;;;;;;4972085;28;20554;-78
2023/01/06 09:10:19;;;;;;;14.00;2.33;;;;;;;;;;4967931;28;20207;-78
2023/01/06 09:12:44;;;;;;;7.87;2.07;;;;;;;;;;4971948;28;20212;-79
2023/01/06 09:15:10;;;;;;;8.40;2.07;;;;;;;;;;4972401;28;20207;-79
2023/01/06 09:17:35;;;;;;;7.17;2.20;;;;;;;;;;4967557;28;20173;-79
2023/01/06 09:20:00;;;;;;;8.07;2.03;;;;;;;;;;4971055;28;20176;-78
2023/01/06 09:22:26;;;;;;;8.27;2.13;;;;;;;;;;4966760;28;20267;-78
2023/01/06 09:24:51;;;;;;;11.33;2.90;;;;;;;;;;4972779;28;20171;-79
2023/01/06 09:27:16;;;;;;;4.67;2.40;;;;;;;;;;4972938;28;20256;-79
2023/01/06 09:29:41;;;;;;;8.97;2.23;;;;;;;;;;4972829;28;20187;-79
2023/01/06 09:32:06;;;;;;;6.13;1.50;;;;;;;;;;4969317;28;20463;-79
2023/01/06 09:34:32;;;;;;;5.57;1.50;;;;;;;;;;4961415;28;20192;-79
2023/01/06 09:36:57;;;;;;;6.20;1.30;;;;;;;;;;4971279;28;20204;-79
2023/01/06 09:39:22;;;;;;;7.45;1.52;;;;;;;;;;4961150;28;20646;-77
2023/01/06 09:42:06;;;;;;;8.30;1.23;;;;;;;;;;4969828;28;20180;-76
2023/01/06 09:44:36;;;;;;;10.45;1.73;;;;;;;;;;4966853;28;20180;-77
2023/01/06 09:47:01;;;;;;;6.90;1.58;;;;;;;;;;4965684;28;20172;-77
2023/01/06 09:49:32;;;;;;;9.95;1.92;;;;;;;;;;4970354;28;20195;-78
2023/01/06 09:52:00;;;;;;;5.00;1.15;;;;;;;;;;4966321;28;20199;-78
2023/01/06 09:54:31;;;;;;;5.47;1.20;;;;;;;;;;4975505;28;20696;-78
2023/01/06 09:57:02;;;;;;;4.53;1.30;;;;;;;;;;4970288;28;20210;-78
2023/01/06 09:59:34;;;;;;;2.97;1.02;;;;;;;;;;4954996;28;20204;-79
2023/01/06 10:01:59;;;;;;;5.15;1.20;;;;;;;;;;4969447;28;20172;-79
2023/01/06 10:04:25;;;;;;;4.97;1.37;;;;;;;;;;4971039;28;20173;-78
2023/01/06 10:07:15;;;;;;;3.40;0.90;;;;;;;;;;4969878;28;20176;-77
2023/01/06 10:09:51;;;;;;;5.93;1.23;;;;;;;;;;4972247;28;20606;-77
2023/01/06 10:12:27;;;;;;;2.90;0.93;;;;;;;;;;4965499;28;20291;-77
2023/01/06 10:15:11;;;;;;;5.53;1.10;;;;;;;;;;4959688;28;20609;-77
2023/01/06 10:17:46;;;;;;;8.10;1.13;;;;;;;;;;4967862;28;20224;-77
2023/01/06 10:20:17;;;;;;;3.10;1.00;;;;;;;;;;4971613;28;20168;-79
2023/01/06 10:23:05;;;;;;;3.47;0.90;;;;;;;;;;4978763;28;20243;-78
2023/01/06 10:25:39;;;;;;;8.18;1.10;;;;;;;;;;4970587;28;20805;-77
2023/01/06 10:28:10;;;;;;;4.60;1.40;;;;;;;;;;4955912;28;20239;-77
2023/01/06 10:30:41;;;;;;;3.90;1.30;;;;;;;;;;4965195;28;20188;-78
2023/01/06 10:33:09;;;;;;;5.55;0.90;;;;;;;;;;4972164;28;20208;-78
2023/01/06 10:35:35;;;;;;;8.13;1.13;;;;;;;;;;4977690;28;20208;-78
2023/01/06 10:38:03;;;;;;;5.90;0.80;;;;;;;;;;4976045;28;20201;-78
2023/01/06 10:40:29;;;;;;;4.57;1.00;;;;;;;;;;4974675;28;20223;-78
2023/01/06 10:42:59;;;;;;;2.60;0.95;;;;;;;;;;4976160;28;20489;-77
2023/01/06 10:45:33;;;;;;;3.55;1.00;;;;;;;;;;4974728;28;20188;-78
2023/01/06 10:47:59;;;;;;;4.55;1.10;;;;;;;;;;4972351;28;20180;-77
2023/01/06 10:50:25;;;;;;;2.65;0.90;;;;;;;;;;4957879;28;20188;-78
2023/01/06 10:52:50;;;;;;;4.85;1.67;;;;;;;;;;4970945;28;20226;-77
2023/01/06 10:55:25;;;;;;;3.92;1.05;;;;;;;;;;4974933;28;20261;-78
2023/01/06 10:57:51;;;;;;;3.58;0.90;;;;;;;;;;4978642;28;20176;-78
2023/01/06 11:00:21;;;;;;;5.75;1.20;;;;;;;;;;4971587;28;20184;-77
2023/01/06 11:02:48;;;;;;;6.28;2.08;;;;;;;;;;4968807;28;20693;-77
2023/01/06 11:05:14;;;;;;;4.40;1.08;;;;;;;;;;4967499;28;20195;-76
2023/01/06 11:07:47;;;;;;;3.83;0.80;;;;;;;;;;4975772;28;20789;-77
2023/01/06 11:10:45;;;;;;;7.35;1.17;;;;;;;;;;4967695;28;20533;-77
2023/01/06 11:13:38;;;;;;;5.25;1.08;;;;;;;;;;4952798;28;20732;-77
2023/01/06 11:16:05;;;;;;;8.18;1.38;;;;;;;;;;4984637;28;20227;-77
2023/01/06 11:18:31;;;;;;;5.45;1.10;;;;;;;;;;4971260;28;20231;-77
2023/01/06 11:21:00;;;;;;;5.60;0.95;;;;;;;;;;4971857;28;20258;-77
2023/01/06 11:23:27;;;;;;;6.32;1.52;;;;;;;;;;4973322;28;20555;-78
2023/01/06 11:26:01;;;;;;;6.50;1.02;;;;;;;;;;4967928;28;20177;-77
2023/01/06 11:28:26;;;;;;;2.42;0.70;;;;;;;;;;4989487;28;20192;-78
2023/01/06 11:30:53;;;;;;;2.95;0.95;;;;;;;;;;4977471;28;20210;-78
2023/01/06 11:33:20;;;;;;;3.67;0.80;;;;;;;;;;4978148;28;20220;-78
2023/01/06 11:35:45;;;;;;;4.57;1.20;;;;;;;;;;4981431;28;20449;-78
2023/01/06 11:38:15;;;;;;;5.03;1.10;;;;;;;;;;4981554;28;20268;-79
2023/01/06 11:40:41;;;;;;;4.40;1.33;;;;;;;;;;4973739;28;20262;-79
2023/01/06 11:43:11;;;;;;;3.35;1.00;;;;;;;;;;4967918;28;20192;-78
2023/01/06 11:45:56;;;;;;;3.88;1.60;;;;;;;;;;4976321;28;20642;-78
2023/01/06 11:48:27;;;;;;;3.45;0.93;;;;;;;;;;4972268;28;20248;-78
2023/01/06 11:50:59;;;;;;;6.05;1.20;;;;;;;;;;4970261;28;20181;-78
2023/01/06 11:53:25;;;;;;;7.72;1.10;;;;;;;;;;4970501;28;20208;-78
2023/01/06 11:55:57;;;;;;;4.22;1.42;;;;;;;;;;4970477;28;20219;-78
2023/01/06 11:58:29;;;;;;;3.85;0.90;;;;;;;;;;4967270;28;20263;-76
2023/01/06 12:00:58;;;;;;;4.70;0.70;;;;;;;;;;4965267;28;20177;-76
2023/01/06 12:03:38;;;;;;;4.30;1.35;;;;;;;;;;4964695;28;20200;-77
2023/01/06 12:06:03;;;;;;;4.65;1.15;;;;;;;;;;4972501;28;20183;-78
2023/01/06 12:08:28;;;;;;;4.25;1.40;;;;;;;;;;4979995;28;20184;-77
2023/01/06 12:10:59;;;;;;;5.55;1.05;;;;;;;;;;4977041;28;20673;-78
2023/01/06 12:13:25;;;;;;;2.50;0.60;;;;;;;;;;4971814;28;20577;-78
2023/01/06 12:16:02;;;;;;;5.75;1.10;;;;;;;;;;4974521;28;20211;-77
2023/01/06 12:18:30;;;;;;;5.05;1.95;;;;;;;;;;4978156;28;20181;-76
2023/01/06 12:20:57;;;;;;;3.85;0.82;;;;;;;;;;4968535;28;21203;-77
2023/01/06 12:23:33;;;;;;;3.55;0.70;;;;;;;;;;4971393;28;20199;-77
2023/01/06 12:26:00;;;;;;;4.47;0.90;;;;;;;;;;4968030;28;20719;-76
2023/01/06 12:28:30;;;;;;;6.05;1.20;;;;;;;;;;4966666;28;20250;-79
2023/01/06 12:31:01;;;;;;;3.75;0.57;;;;;;;;;;4967371;28;20189;-77
2023/01/06 12:33:32;;;;;;;5.10;0.60;;;;;;;;;;4969588;28;20207;-79
2023/01/06 12:36:01;;;;;;;6.82;1.67;;;;;;;;;;4970220;28;20213;-79
2023/01/06 12:38:29;;;;;;;3.63;0.65;;;;;;;;;;4972509;28;20188;-79
2023/01/06 12:40:58;;;;;;;3.58;0.90;;;;;;;;;;4974219;28;20207;-78
2023/01/06 12:43:27;;;;;;;2.10;0.50;;;;;;;;;;4967218;28;20195;-78
2023/01/06 12:45:58;;;;;;;6.43;1.00;;;;;;;;;;4975275;28;20180;-79
2023/01/06 12:48:35;;;;;;;4.00;0.82;;;;;;;;;;4972321;28;20180;-79
2023/01/06 12:51:07;;;;;;;5.95;1.50;;;;;;;;;;4969650;28;20183;-78
2023/01/06 12:53:35;;;;;;;3.10;0.73;;;;;;;;;;4971886;28;20208;-78
2023/01/06 12:56:06;;;;;;;2.63;0.88;;;;;;;;;;4970260;28;20210;-78
2023/01/06 12:58:31;;;;;;;5.93;1.33;;;;;;;;;;4972738;28;20176;-78
2023/01/06 13:00:56;;;;;;;1.73;0.60;;;;;;;;;;4977269;28;20203;-78
2023/01/06 13:03:25;;;;;;;2.92;1.08;;;;;;;;;;4976064;28;20891;-78
2023/01/06 13:06:08;;;;;;;4.18;0.73;;;;;;;;;;4975030;28;20172;-78
2023/01/06 13:08:42;;;;;;;3.67;0.63;;;;;;;;;;4968665;28;20185;-78
2023/01/06 13:11:29;;;;;;;2.67;1.33;;;;;;;;;;4965472;28;20184;-77
2023/01/06 13:14:10;;;;;;;2.92;0.68;;;;;;;;;;5008911;22;20230;-74
2023/01/06 13:16:40;;;;;;;1.63;0.85;;;;;;;;;;5005212;28;20214;-74
2023/01/06 13:19:14;;;;;;;5.65;0.90;;;;;;;;;;5004156;28;20217;-74
2023/01/06 13:21:40;;;;;;;3.08;0.80;;;;;;;;;;5004503;28;20241;-74
2023/01/06 13:24:05;;;;;;;2.45;0.80;;;;;;;;;;5005321;28;20229;-74
2023/01/06 13:26:42;;;;;;;4.73;1.00;;;;;;;;;;5006881;28;20271;-74
2023/01/06 13:29:26;;;;;;;4.35;0.75;;;;;;;;;;5001069;28;20448;-74
2023/01/06 13:31:58;;;;;;;3.63;1.58;;;;;;;;;;5005461;28;20179;-74
2023/01/06 13:34:32;;;;;;;7.95;0.93;;;;;;;;;;5005274;28;20298;-74
2023/01/06 13:37:16;;;;;;;7.32;1.00;;;;;;;;;;5007567;28;20206;-74
2023/01/06 13:39:47;;;;;;;1.73;0.88;;;;;;;;;;5004252;28;20171;-74
2023/01/06 13:42:18;;;;;;;1.33;0.50;;;;;;;;;;5007039;28;20175;-73
2023/01/06 13:44:44;;;;;;;2.30;0.77;;;;;;;;;;5005093;28;20477;-73
2023/01/06 13:47:20;;;;;;;9.57;1.20;;;;;;;;;;5005250;28;20258;-73
2023/01/06 13:49:46;;;;;;;2.92;0.90;;;;;;;;;;5004824;28;20175;-72
2023/01/06 13:52:18;;;;;;;3.25;0.90;;;;;;;;;;5007431;28;20654;-73
2023/01/06 13:54:43;;;;;;;3.55;1.13;;;;;;;;;;5004880;28;20667;-74
2023/01/06 13:57:21;;;;;;;1.60;1.00;;;;;;;;;;5009936;28;20296;-74
2023/01/06 13:59:53;;;;;;;2.80;1.15;;;;;;;;;;5007279;28;20420;-73
2023/01/06 14:02:38;;;;;;;1.45;0.50;;;;;;;;;;5006295;28;20194;-73
2023/01/06 14:05:03;;;;;;;1.65;0.73;;;;;;;;;;5001687;28;20222;-73
2023/01/06 14:07:32;;;;;;;1.83;0.77;;;;;;;;;;5002097;28;20649;-73
2023/01/06 14:09:58;;;;;;;2.95;0.90;;;;;;;;;;5003392;28;20952;-73
2023/01/06 14:12:24;;;;;;;2.78;0.85;;;;;;;;;;5007351;28;20186;-73
2023/01/06 14:14:56;;;;;;;2.60;0.75;;;;;;;;;;5004688;28;20193;-73
2023/01/06 14:17:30;;;;;;;0.70;0.47;;;;;;;;;;5009417;28;20257;-74
2023/01/06 14:19:55;;;;;;;2.28;0.82;;;;;;;;;;5000985;28;20179;-74
2023/01/06 14:22:23;;;;;;;2.08;0.60;;;;;;;;;;5005713;28;20656;-74
2023/01/06 14:24:50;;;;;;;7.15;2.60;;;;;;;;;;5007243;28;20589;-73
2023/01/06 14:27:15;;;;;;;2.95;0.50;;;;;;;;;;5007175;28;20297;-75
2023/01/06 14:29:44;;;;;;;3.67;0.88;;;;;;;;;;5005590;28;20168;-73
2023/01/06 14:32:15;;;;;;;3.80;0.85;;;;;;;;;;5010661;28;20199;-73
2023/01/06 14:34:53;;;;;;;4.30;1.15;;;;;;;;;;5021091;28;20178;-73
2023/01/06 14:37:20;;;;;;;3.67;0.80;;;;;;;;;;5004434;28;20218;-73
2023/01/06 14:39:47;;;;;;;2.85;1.15;;;;;;;;;;5006096;28;20183;-73
2023/01/06 14:42:33;;;;;;;4.93;0.82;;;;;;;;;;5004478;28;20179;-74
2023/01/06 14:45:02;;;;;;;2.05;0.73;;;;;;;;;;5000066;28;20192;-73
2023/01/06 14:47:33;;;;;;;3.63;1.05;;;;;;;;;;5005987;28;20564;-73
2023/01/06 14:50:03;;;;;;;1.45;0.70;;;;;;;;;;5008261;28;20662;-73
2023/01/06 14:52:33;;;;;;;1.00;0.40;;;;;;;;;;5005696;28;20179;-73
2023/01/06 14:54:59;;;;;;;4.47;1.20;;;;;;;;;;5004774;28;20198;-73